sensor_id;sensor_type;location;lat;lon;timestamp;temperature;humidity
3752;DHT22;50827;47.014;7.652;2022-09-17T00:01:24;13.60;99.90
3752;DHT22;50827;47.014;7.652;2022-09-17T00:03:55;13.60;99.90
3752;DHT22;50827;47.014;7.652;2022-09-17T00:06:23;13.50;99.90
3752;DHT22;50827;47.014;7.652;2022-09-17T00:08:51;13.50;99.90
3752;DHT22;50827;47.014;7.652;2022-09-17T00:11:30;13.40;99.90
3752;DHT22;50827;47.014;7.652;2022-09-17T00:13:59;13.50;99.90
3752;DHT22;50827;47.014;7.652;2022-09-17T00:16:29;13.40;99.90
3752;DHT22;50827;47.014;7.652;2022-09-17T00:18:58;13.30;99.90
3752;DHT22;50827;47.014;7.652;2022-09-17T00:21:25;13.40;99.90
3752;DHT22;50827;47.014;7.652;2022-09-17T00:23:57;13.30;99.90
3752;DHT22;50827;47.014;7.652;2022-09-17T00:26:25;13.10;99.90
3752;DHT22;50827;47.014;7.652;2022-09-17T00:28:54;13.10;99.90
3752;DHT22;50827;47.014;7.652;2022-09-17T00:31:21;13.10;99.90
3752;DHT22;50827;47.014;7.652;2022-09-17T00:33:48;13.20;99.90
3752;DHT22;50827;47.014;7.652;2022-09-17T00:36:15;13.10;99.90
3752;DHT22;50827;47.014;7.652;2022-09-17T00:38:42;13.20;99.90
3752;DHT22;50827;47.014;7.652;2022-09-17T00:41:08;13.20;99.90
3752;DHT22;50827;47.014;7.652;2022-09-17T00:48:45;13.10;99.90
3752;DHT22;50827;47.014;7.652;2022-09-17T00:51:16;13.10;99.90
3752;DHT22;50827;47.014;7.652;2022-09-17T00:53:43;13.00;99.90
3752;DHT22;50827;47.014;7.652;2022-09-17T00:58:43;12.90;99.90
3752;DHT22;50827;47.014;7.652;2022-09-17T01:01:09;12.90;99.90
3752;DHT22;50827;47.014;7.652;2022-09-17T01:03:36;12.90;99.90
3752;DHT22;50827;47.014;7.652;2022-09-17T01:23:50;12.80;99.90
3752;DHT22;50827;47.014;7.652;2022-09-17T01:29:22;12.80;99.90
3752;DHT22;50827;47.014;7.652;2022-09-17T01:35:14;12.70;99.90
3752;DHT22;50827;47.014;7.652;2022-09-17T01:37:50;12.70;99.90
3752;DHT22;50827;47.014;7.652;2022-09-17T01:40:40;12.70;99.90
3752;DHT22;50827;47.014;7.652;2022-09-17T01:43:29;12.70;99.90
3752;DHT22;50827;47.014;7.652;2022-09-17T01:46:09;12.70;99.90
3752;DHT22;50827;47.014;7.652;2022-09-17T01:48:43;12.60;99.90
3752;DHT22;50827;47.014;7.652;2022-09-17T01:51:15;12.60;99.90
3752;DHT22;50827;47.014;7.652;2022-09-17T01:56:16;12.60;99.90
3752;DHT22;50827;47.014;7.652;2022-09-17T01:58:52;12.60;99.90
3752;DHT22;50827;47.014;7.652;2022-09-17T02:01:21;12.60;99.90
3752;DHT22;50827;47.014;7.652;2022-09-17T02:04:04;12.50;99.90
3752;DHT22;50827;47.014;7.652;2022-09-17T02:06:37;12.50;99.90
3752;DHT22;50827;47.014;7.652;2022-09-17T02:09:17;12.50;99.90
3752;DHT22;50827;47.014;7.652;2022-09-17T02:11:50;12.50;99.90
3752;DHT22;50827;47.014;7.652;2022-09-17T02:14:26;12.50;99.90
3752;DHT22;50827;47.014;7.652;2022-09-17T02:16:58;12.50;99.90
3752;DHT22;50827;47.014;7.652;2022-09-17T02:19:33;12.50;99.90
3752;DHT22;50827;47.014;7.652;2022-09-17T02:22:41;12.50;99.90
3752;DHT22;50827;47.014;7.652;2022-09-17T02:27:46;12.40;99.90
3752;DHT22;50827;47.014;7.652;2022-09-17T02:30:15;12.40;99.90
3752;DHT22;50827;47.014;7.652;2022-09-17T02:32:42;12.40;99.90
3752;DHT22;50827;47.014;7.652;2022-09-17T02:35:10;12.40;99.90
3752;DHT22;50827;47.014;7.652;2022-09-17T02:37:42;12.40;99.90
3752;DHT22;50827;47.014;7.652;2022-09-17T02:40:12;12.40;99.90
3752;DHT22;50827;47.014;7.652;2022-09-17T02:51:19;12.40;99.90
3752;DHT22;50827;47.014;7.652;2022-09-17T02:54:08;12.40;99.90
3752;DHT22;50827;47.014;7.652;2022-09-17T02:57:06;12.40;99.90
3752;DHT22;50827;47.014;7.652;2022-09-17T03:00:03;12.20;99.90
3752;DHT22;50827;47.014;7.652;2022-09-17T03:02:37;12.30;99.90
3752;DHT22;50827;47.014;7.652;2022-09-17T03:05:07;12.30;99.90
3752;DHT22;50827;47.014;7.652;2022-09-17T03:07:35;12.20;99.90
3752;DHT22;50827;47.014;7.652;2022-09-17T03:10:03;12.20;99.90
3752;DHT22;50827;47.014;7.652;2022-09-17T03:12:30;12.20;99.90
3752;DHT22;50827;47.014;7.652;2022-09-17T03:14:56;12.20;99.90
3752;DHT22;50827;47.014;7.652;2022-09-17T03:17:23;12.20;99.90
3752;DHT22;50827;47.014;7.652;2022-09-17T03:19:49;12.20;99.90
3752;DHT22;50827;47.014;7.652;2022-09-17T03:22:16;12.20;99.90
3752;DHT22;50827;47.014;7.652;2022-09-17T03:24:43;12.20;99.90
3752;DHT22;50827;47.014;7.652;2022-09-17T03:27:09;12.20;99.90
3752;DHT22;50827;47.014;7.652;2022-09-17T03:29:36;12.20;99.90
3752;DHT22;50827;47.014;7.652;2022-09-17T03:32:03;12.20;99.90
3752;DHT22;50827;47.014;7.652;2022-09-17T03:34:30;12.20;99.90
3752;DHT22;50827;47.014;7.652;2022-09-17T03:36:56;12.20;99.90
3752;DHT22;50827;47.014;7.652;2022-09-17T03:39:23;12.20;99.90
3752;DHT22;50827;47.014;7.652;2022-09-17T03:41:50;12.10;99.90
3752;DHT22;50827;47.014;7.652;2022-09-17T03:44:16;12.10;99.90
3752;DHT22;50827;47.014;7.652;2022-09-17T03:46:44;12.10;99.90
3752;DHT22;50827;47.014;7.652;2022-09-17T03:49:11;12.10;99.90
3752;DHT22;50827;47.014;7.652;2022-09-17T03:51:39;12.10;99.90
3752;DHT22;50827;47.014;7.652;2022-09-17T03:54:05;12.10;99.90
3752;DHT22;50827;47.014;7.652;2022-09-17T03:56:32;12.00;99.90
3752;DHT22;50827;47.014;7.652;2022-09-17T03:59:00;12.00;99.90
3752;DHT22;50827;47.014;7.652;2022-09-17T04:01:27;11.90;99.90
3752;DHT22;50827;47.014;7.652;2022-09-17T04:03:54;11.90;99.90
3752;DHT22;50827;47.014;7.652;2022-09-17T04:06:21;11.90;99.90
3752;DHT22;50827;47.014;7.652;2022-09-17T04:08:47;11.90;99.90
3752;DHT22;50827;47.014;7.652;2022-09-17T04:11:14;11.80;99.90
3752;DHT22;50827;47.014;7.652;2022-09-17T04:13:41;11.80;99.90
3752;DHT22;50827;47.014;7.652;2022-09-17T04:16:07;11.80;99.90
3752;DHT22;50827;47.014;7.652;2022-09-17T04:18:34;11.70;99.90
3752;DHT22;50827;47.014;7.652;2022-09-17T04:21:01;11.70;99.90
3752;DHT22;50827;47.014;7.652;2022-09-17T04:23:28;11.60;99.90
3752;DHT22;50827;47.014;7.652;2022-09-17T04:25:54;11.60;99.90
3752;DHT22;50827;47.014;7.652;2022-09-17T04:28:21;11.60;99.90
3752;DHT22;50827;47.014;7.652;2022-09-17T04:30:48;11.50;99.90
3752;DHT22;50827;47.014;7.652;2022-09-17T04:33:14;11.50;99.90
3752;DHT22;50827;47.014;7.652;2022-09-17T04:35:41;11.50;99.90
3752;DHT22;50827;47.014;7.652;2022-09-17T04:38:09;11.50;99.90
3752;DHT22;50827;47.014;7.652;2022-09-17T04:40:35;11.50;99.90
3752;DHT22;50827;47.014;7.652;2022-09-17T04:43:02;11.50;99.90
3752;DHT22;50827;47.014;7.652;2022-09-17T04:45:29;11.50;99.90
3752;DHT22;50827;47.014;7.652;2022-09-17T04:47:58;11.40;99.90
3752;DHT22;50827;47.014;7.652;2022-09-17T04:50:25;11.40;99.90
3752;DHT22;50827;47.014;7.652;2022-09-17T04:52:52;11.40;99.90
3752;DHT22;50827;47.014;7.652;2022-09-17T04:55:18;11.30;99.90
3752;DHT22;50827;47.014;7.652;2022-09-17T04:57:49;11.30;99.90
3752;DHT22;50827;47.014;7.652;2022-09-17T05:00:17;11.20;99.90
3752;DHT22;50827;47.014;7.652;2022-09-17T05:02:48;11.20;99.90
3752;DHT22;50827;47.014;7.652;2022-09-17T05:05:16;11.20;99.90
3752;DHT22;50827;47.014;7.652;2022-09-17T05:07:44;11.20;99.90
3752;DHT22;50827;47.014;7.652;2022-09-17T05:10:12;11.20;99.90
3752;DHT22;50827;47.014;7.652;2022-09-17T05:12:39;11.10;99.90
3752;DHT22;50827;47.014;7.652;2022-09-17T05:15:06;11.10;99.90
3752;DHT22;50827;47.014;7.652;2022-09-17T05:17:33;11.10;99.90
3752;DHT22;50827;47.014;7.652;2022-09-17T05:20:00;11.10;99.90
3752;DHT22;50827;47.014;7.652;2022-09-17T05:22:27;11.10;99.90
3752;DHT22;50827;47.014;7.652;2022-09-17T05:24:53;11.10;99.90
3752;DHT22;50827;47.014;7.652;2022-09-17T05:27:20;11.10;99.90
3752;DHT22;50827;47.014;7.652;2022-09-17T05:29:46;11.10;99.90
3752;DHT22;50827;47.014;7.652;2022-09-17T05:32:13;11.10;99.90
3752;DHT22;50827;47.014;7.652;2022-09-17T05:34:40;11.00;99.90
3752;DHT22;50827;47.014;7.652;2022-09-17T05:37:10;10.90;99.90
3752;DHT22;50827;47.014;7.652;2022-09-17T05:39:37;11.00;99.90
3752;DHT22;50827;47.014;7.652;2022-09-17T05:42:03;11.00;99.90
3752;DHT22;50827;47.014;7.652;2022-09-17T05:44:30;11.00;99.90
3752;DHT22;50827;47.014;7.652;2022-09-17T05:46:57;11.00;99.90
3752;DHT22;50827;47.014;7.652;2022-09-17T05:49:24;10.90;99.90
3752;DHT22;50827;47.014;7.652;2022-09-17T05:51:51;10.90;99.90
3752;DHT22;50827;47.014;7.652;2022-09-17T05:54:17;10.90;99.90
3752;DHT22;50827;47.014;7.652;2022-09-17T05:56:44;11.00;99.90
3752;DHT22;50827;47.014;7.652;2022-09-17T05:59:11;11.00;99.90
3752;DHT22;50827;47.014;7.652;2022-09-17T06:01:38;11.00;99.90
3752;DHT22;50827;47.014;7.652;2022-09-17T06:04:04;11.00;99.90
3752;DHT22;50827;47.014;7.652;2022-09-17T06:06:31;11.00;99.90
3752;DHT22;50827;47.014;7.652;2022-09-17T06:08:58;11.00;99.90
3752;DHT22;50827;47.014;7.652;2022-09-17T06:11:25;10.90;99.90
3752;DHT22;50827;47.014;7.652;2022-09-17T06:13:53;11.00;99.90
3752;DHT22;50827;47.014;7.652;2022-09-17T06:16:21;11.00;99.90
3752;DHT22;50827;47.014;7.652;2022-09-17T06:18:48;10.90;99.90
3752;DHT22;50827;47.014;7.652;2022-09-17T06:21:19;10.60;99.90
3752;DHT22;50827;47.014;7.652;2022-09-17T06:23:49;10.60;99.90
3752;DHT22;50827;47.014;7.652;2022-09-17T06:26:16;10.60;99.90
3752;DHT22;50827;47.014;7.652;2022-09-17T06:28:46;10.50;99.90
3752;DHT22;50827;47.014;7.652;2022-09-17T06:31:13;10.50;99.90
3752;DHT22;50827;47.014;7.652;2022-09-17T06:33:40;10.50;99.90
3752;DHT22;50827;47.014;7.652;2022-09-17T06:36:10;10.50;99.90
3752;DHT22;50827;47.014;7.652;2022-09-17T06:38:40;10.50;99.90
3752;DHT22;50827;47.014;7.652;2022-09-17T06:41:07;10.60;99.90
3752;DHT22;50827;47.014;7.652;2022-09-17T06:43:34;10.60;99.90
3752;DHT22;50827;47.014;7.652;2022-09-17T06:46:02;10.70;99.90
3752;DHT22;50827;47.014;7.652;2022-09-17T06:48:33;10.80;99.90
3752;DHT22;50827;47.014;7.652;2022-09-17T06:51:05;10.90;99.90
3752;DHT22;50827;47.014;7.652;2022-09-17T06:53:32;10.90;99.90
3752;DHT22;50827;47.014;7.652;2022-09-17T06:55:59;11.00;99.90
3752;DHT22;50827;47.014;7.652;2022-09-17T06:58:32;11.10;99.90
3752;DHT22;50827;47.014;7.652;2022-09-17T07:01:00;11.20;99.90
3752;DHT22;50827;47.014;7.652;2022-09-17T07:03:28;11.20;99.90
3752;DHT22;50827;47.014;7.652;2022-09-17T07:05:55;11.30;99.90
3752;DHT22;50827;47.014;7.652;2022-09-17T07:08:22;11.30;99.90
3752;DHT22;50827;47.014;7.652;2022-09-17T07:10:48;11.40;99.90
3752;DHT22;50827;47.014;7.652;2022-09-17T07:13:15;11.50;99.90
3752;DHT22;50827;47.014;7.652;2022-09-17T07:15:42;11.50;99.90
3752;DHT22;50827;47.014;7.652;2022-09-17T07:18:09;11.60;99.90
3752;DHT22;50827;47.014;7.652;2022-09-17T07:20:37;11.60;99.90
3752;DHT22;50827;47.014;7.652;2022-09-17T07:23:04;11.70;99.90
3752;DHT22;50827;47.014;7.652;2022-09-17T07:25:31;11.70;99.90
3752;DHT22;50827;47.014;7.652;2022-09-17T07:27:57;11.80;99.90
3752;DHT22;50827;47.014;7.652;2022-09-17T07:30:25;11.80;99.90
3752;DHT22;50827;47.014;7.652;2022-09-17T07:32:51;11.80;99.90
3752;DHT22;50827;47.014;7.652;2022-09-17T07:35:18;11.90;99.90
3752;DHT22;50827;47.014;7.652;2022-09-17T07:37:45;11.90;99.90
3752;DHT22;50827;47.014;7.652;2022-09-17T07:40:12;11.90;99.90
3752;DHT22;50827;47.014;7.652;2022-09-17T07:42:39;12.00;99.90
3752;DHT22;50827;47.014;7.652;2022-09-17T07:45:06;12.00;99.90
3752;DHT22;50827;47.014;7.652;2022-09-17T07:47:37;12.10;99.90
3752;DHT22;50827;47.014;7.652;2022-09-17T07:50:05;12.10;99.90
3752;DHT22;50827;47.014;7.652;2022-09-17T07:52:32;12.10;99.90
3752;DHT22;50827;47.014;7.652;2022-09-17T07:54:58;12.20;99.90
3752;DHT22;50827;47.014;7.652;2022-09-17T07:57:25;12.20;99.90
3752;DHT22;50827;47.014;7.652;2022-09-17T07:59:52;12.20;99.90
3752;DHT22;50827;47.014;7.652;2022-09-17T08:02:18;12.20;99.90
3752;DHT22;50827;47.014;7.652;2022-09-17T08:04:50;12.20;99.90
3752;DHT22;50827;47.014;7.652;2022-09-17T08:07:16;12.20;99.90
3752;DHT22;50827;47.014;7.652;2022-09-17T08:09:43;12.20;99.90
3752;DHT22;50827;47.014;7.652;2022-09-17T08:12:10;12.30;99.90
3752;DHT22;50827;47.014;7.652;2022-09-17T08:14:36;12.30;99.90
3752;DHT22;50827;47.014;7.652;2022-09-17T08:17:06;12.50;99.90
3752;DHT22;50827;47.014;7.652;2022-09-17T08:19:32;12.50;99.90
3752;DHT22;50827;47.014;7.652;2022-09-17T08:21:59;12.70;99.90
3752;DHT22;50827;47.014;7.652;2022-09-17T08:24:26;12.80;99.90
3752;DHT22;50827;47.014;7.652;2022-09-17T08:26:53;13.00;99.90
3752;DHT22;50827;47.014;7.652;2022-09-17T08:29:19;13.10;99.90
3752;DHT22;50827;47.014;7.652;2022-09-17T08:31:46;13.10;99.90
3752;DHT22;50827;47.014;7.652;2022-09-17T08:34:13;13.20;99.90
3752;DHT22;50827;47.014;7.652;2022-09-17T08:36:39;13.20;99.90
3752;DHT22;50827;47.014;7.652;2022-09-17T08:39:06;13.20;99.90
3752;DHT22;50827;47.014;7.652;2022-09-17T08:44:40;13.00;99.90
3752;DHT22;50827;47.014;7.652;2022-09-17T08:47:15;13.10;99.90
3752;DHT22;50827;47.014;7.652;2022-09-17T08:49:52;13.00;99.90
3752;DHT22;50827;47.014;7.652;2022-09-17T09:00:44;13.00;99.90
3752;DHT22;50827;47.014;7.652;2022-09-17T09:03:20;13.00;99.90
3752;DHT22;50827;47.014;7.652;2022-09-17T09:05:51;13.00;99.90
3752;DHT22;50827;47.014;7.652;2022-09-17T09:11:11;13.10;99.90
3752;DHT22;50827;47.014;7.652;2022-09-17T09:13:42;13.10;99.90
3752;DHT22;50827;47.014;7.652;2022-09-17T09:18:46;13.10;99.90
3752;DHT22;50827;47.014;7.652;2022-09-17T09:23:56;13.20;99.90
3752;DHT22;50827;47.014;7.652;2022-09-17T09:34:41;13.20;99.90
3752;DHT22;50827;47.014;7.652;2022-09-17T09:37:17;13.20;99.90
3752;DHT22;50827;47.014;7.652;2022-09-17T09:39:47;13.20;99.90
3752;DHT22;50827;47.014;7.652;2022-09-17T09:45:16;13.20;99.90
3752;DHT22;50827;47.014;7.652;2022-09-17T09:47:55;13.30;99.90
3752;DHT22;50827;47.014;7.652;2022-09-17T09:50:37;13.30;99.90
3752;DHT22;50827;47.014;7.652;2022-09-17T09:56:24;13.40;99.90
3752;DHT22;50827;47.014;7.652;2022-09-17T09:58:53;13.40;99.90
3752;DHT22;50827;47.014;7.652;2022-09-17T10:01:20;13.40;99.90
3752;DHT22;50827;47.014;7.652;2022-09-17T10:03:51;13.40;99.90
3752;DHT22;50827;47.014;7.652;2022-09-17T10:06:18;13.40;99.90
3752;DHT22;50827;47.014;7.652;2022-09-17T10:11:23;13.30;99.90
3752;DHT22;50827;47.014;7.652;2022-09-17T10:13:50;13.40;99.90
3752;DHT22;50827;47.014;7.652;2022-09-17T10:18:44;13.30;99.90
3752;DHT22;50827;47.014;7.652;2022-09-17T10:21:25;13.40;99.90
3752;DHT22;50827;47.014;7.652;2022-09-17T10:23:55;13.40;99.90
3752;DHT22;50827;47.014;7.652;2022-09-17T10:26:25;13.40;99.90
3752;DHT22;50827;47.014;7.652;2022-09-17T10:28:55;13.50;99.90
3752;DHT22;50827;47.014;7.652;2022-09-17T10:31:22;13.50;99.90
3752;DHT22;50827;47.014;7.652;2022-09-17T10:34:04;13.60;99.90
3752;DHT22;50827;47.014;7.652;2022-09-17T10:36:44;13.60;99.90
3752;DHT22;50827;47.014;7.652;2022-09-17T10:42:04;13.70;99.90
3752;DHT22;50827;47.014;7.652;2022-09-17T10:44:35;13.80;99.90
3752;DHT22;50827;47.014;7.652;2022-09-17T10:47:20;13.80;99.90
3752;DHT22;50827;47.014;7.652;2022-09-17T10:50:04;13.70;99.90
3752;DHT22;50827;47.014;7.652;2022-09-17T10:55:35;13.60;99.90
3752;DHT22;50827;47.014;7.652;2022-09-17T11:01:21;13.70;99.90
3752;DHT22;50827;47.014;7.652;2022-09-17T11:03:47;14.00;99.90
3752;DHT22;50827;47.014;7.652;2022-09-17T11:06:37;14.20;99.90
3752;DHT22;50827;47.014;7.652;2022-09-17T11:23:53;14.30;99.90
3752;DHT22;50827;47.014;7.652;2022-09-17T11:26:57;14.30;99.90
3752;DHT22;50827;47.014;7.652;2022-09-17T11:35:51;14.30;99.90
3752;DHT22;50827;47.014;7.652;2022-09-17T11:41:30;14.30;99.90
3752;DHT22;50827;47.014;7.652;2022-09-17T11:44:43;14.20;99.90
3752;DHT22;50827;47.014;7.652;2022-09-17T11:47:14;14.20;99.90
3752;DHT22;50827;47.014;7.652;2022-09-17T11:50:10;14.30;99.90
3752;DHT22;50827;47.014;7.652;2022-09-17T11:55:52;14.30;99.90
3752;DHT22;50827;47.014;7.652;2022-09-17T11:58:31;14.40;99.90
3752;DHT22;50827;47.014;7.652;2022-09-17T12:01:03;14.40;99.90
3752;DHT22;50827;47.014;7.652;2022-09-17T12:03:42;14.50;99.90
3752;DHT22;50827;47.014;7.652;2022-09-17T12:06:19;14.50;99.90
3752;DHT22;50827;47.014;7.652;2022-09-17T12:11:44;14.60;99.90
3752;DHT22;50827;47.014;7.652;2022-09-17T12:14:16;14.70;99.90
3752;DHT22;50827;47.014;7.652;2022-09-17T12:16:47;14.60;99.90
3752;DHT22;50827;47.014;7.652;2022-09-17T12:22:21;14.60;99.90
3752;DHT22;50827;47.014;7.652;2022-09-17T12:24:50;14.60;99.90
3752;DHT22;50827;47.014;7.652;2022-09-17T12:51:58;15.20;99.90
3752;DHT22;50827;47.014;7.652;2022-09-17T12:55:06;15.30;99.90
3752;DHT22;50827;47.014;7.652;2022-09-17T12:57:47;15.30;99.90
3752;DHT22;50827;47.014;7.652;2022-09-17T13:00:16;15.20;99.90
3752;DHT22;50827;47.014;7.652;2022-09-17T13:03:06;15.30;99.90
3752;DHT22;50827;47.014;7.652;2022-09-17T13:06:19;15.30;99.90
3752;DHT22;50827;47.014;7.652;2022-09-17T13:09:27;15.40;99.90
3752;DHT22;50827;47.014;7.652;2022-09-17T13:12:18;15.50;99.90
3752;DHT22;50827;47.014;7.652;2022-09-17T13:17:59;15.50;99.90
3752;DHT22;50827;47.014;7.652;2022-09-17T13:20:58;15.50;99.90
3752;DHT22;50827;47.014;7.652;2022-09-17T13:23:42;15.70;99.90
3752;DHT22;50827;47.014;7.652;2022-09-17T13:26:11;15.80;99.90
3752;DHT22;50827;47.014;7.652;2022-09-17T13:28:44;15.80;99.90
3752;DHT22;50827;47.014;7.652;2022-09-17T13:31:45;15.80;99.90
3752;DHT22;50827;47.014;7.652;2022-09-17T13:36:48;15.80;99.90
3752;DHT22;50827;47.014;7.652;2022-09-17T13:39:36;15.80;99.90
3752;DHT22;50827;47.014;7.652;2022-09-17T13:44:44;15.80;99.90
3752;DHT22;50827;47.014;7.652;2022-09-17T13:47:29;15.70;99.90
3752;DHT22;50827;47.014;7.652;2022-09-17T13:50:04;15.80;99.90
3752;DHT22;50827;47.014;7.652;2022-09-17T13:52:45;15.80;99.90
3752;DHT22;50827;47.014;7.652;2022-09-17T13:55:33;15.70;99.90
3752;DHT22;50827;47.014;7.652;2022-09-17T14:01:05;15.60;99.90
3752;DHT22;50827;47.014;7.652;2022-09-17T14:19:28;15.30;99.90
3752;DHT22;50827;47.014;7.652;2022-09-17T14:21:57;15.20;99.90
3752;DHT22;50827;47.014;7.652;2022-09-17T14:24:44;15.20;99.90
3752;DHT22;50827;47.014;7.652;2022-09-17T14:27:16;15.20;99.90
3752;DHT22;50827;47.014;7.652;2022-09-17T14:30:09;15.30;99.90
3752;DHT22;50827;47.014;7.652;2022-09-17T14:35:37;15.40;99.90
3752;DHT22;50827;47.014;7.652;2022-09-17T14:38:18;15.50;99.90
3752;DHT22;50827;47.014;7.652;2022-09-17T14:41:02;15.40;99.90
3752;DHT22;50827;47.014;7.652;2022-09-17T14:46:00;15.60;99.90
3752;DHT22;50827;47.014;7.652;2022-09-17T14:48:30;15.50;99.90
3752;DHT22;50827;47.014;7.652;2022-09-17T14:53:43;15.40;99.90
3752;DHT22;50827;47.014;7.652;2022-09-17T14:56:20;15.40;99.90
3752;DHT22;50827;47.014;7.652;2022-09-17T14:58:52;15.50;99.90
3752;DHT22;50827;47.014;7.652;2022-09-17T15:01:25;15.50;99.90
3752;DHT22;50827;47.014;7.652;2022-09-17T15:06:41;15.50;99.90
3752;DHT22;50827;47.014;7.652;2022-09-17T15:09:16;15.60;99.90
3752;DHT22;50827;47.014;7.652;2022-09-17T15:11:44;15.60;99.90
3752;DHT22;50827;47.014;7.652;2022-09-17T15:14:22;15.60;99.90
3752;DHT22;50827;47.014;7.652;2022-09-17T15:16:51;15.50;99.90
3752;DHT22;50827;47.014;7.652;2022-09-17T15:19:24;15.30;99.90
3752;DHT22;50827;47.014;7.652;2022-09-17T15:21:56;15.20;99.90
3752;DHT22;50827;47.014;7.652;2022-09-17T15:27:18;15.10;99.90
3752;DHT22;50827;47.014;7.652;2022-09-17T15:29:51;15.00;99.90
3752;DHT22;50827;47.014;7.652;2022-09-17T15:32:20;15.10;99.90
3752;DHT22;50827;47.014;7.652;2022-09-17T15:37:50;15.20;99.90
3752;DHT22;50827;47.014;7.652;2022-09-17T15:40:38;15.20;99.90
3752;DHT22;50827;47.014;7.652;2022-09-17T15:43:26;15.30;99.90
3752;DHT22;50827;47.014;7.652;2022-09-17T15:45:54;15.20;99.90
3752;DHT22;50827;47.014;7.652;2022-09-17T15:50:53;15.10;99.90
3752;DHT22;50827;47.014;7.652;2022-09-17T15:53:25;15.10;99.90
3752;DHT22;50827;47.014;7.652;2022-09-17T16:09:00;15.20;99.90
3752;DHT22;50827;47.014;7.652;2022-09-17T16:11:31;15.30;99.90
3752;DHT22;50827;47.014;7.652;2022-09-17T16:13:59;15.30;99.90
3752;DHT22;50827;47.014;7.652;2022-09-17T16:16:34;15.30;99.90
3752;DHT22;50827;47.014;7.652;2022-09-17T16:19:01;15.30;99.90
3752;DHT22;50827;47.014;7.652;2022-09-17T16:21:28;15.30;99.90
3752;DHT22;50827;47.014;7.652;2022-09-17T16:23:54;15.30;99.90
3752;DHT22;50827;47.014;7.652;2022-09-17T16:26:29;15.30;99.90
3752;DHT22;50827;47.014;7.652;2022-09-17T16:29:02;15.30;99.90
3752;DHT22;50827;47.014;7.652;2022-09-17T16:31:29;15.20;99.90
3752;DHT22;50827;47.014;7.652;2022-09-17T16:33:57;15.20;99.90
3752;DHT22;50827;47.014;7.652;2022-09-17T16:36:24;15.00;99.90
3752;DHT22;50827;47.014;7.652;2022-09-17T16:38:50;15.10;99.90
3752;DHT22;50827;47.014;7.652;2022-09-17T16:41:17;15.00;99.90
3752;DHT22;50827;47.014;7.652;2022-09-17T16:43:44;15.00;99.90
3752;DHT22;50827;47.014;7.652;2022-09-17T16:46:10;15.00;99.90
3752;DHT22;50827;47.014;7.652;2022-09-17T16:48:37;15.00;99.90
3752;DHT22;50827;47.014;7.652;2022-09-17T16:51:08;14.90;99.90
3752;DHT22;50827;47.014;7.652;2022-09-17T16:53:35;14.90;99.90
3752;DHT22;50827;47.014;7.652;2022-09-17T16:56:06;14.80;99.90
3752;DHT22;50827;47.014;7.652;2022-09-17T16:58:33;14.70;99.90
3752;DHT22;50827;47.014;7.652;2022-09-17T17:01:26;14.70;99.90
3752;DHT22;50827;47.014;7.652;2022-09-17T17:03:52;14.60;99.90
3752;DHT22;50827;47.014;7.652;2022-09-17T17:06:21;14.60;99.90
3752;DHT22;50827;47.014;7.652;2022-09-17T17:08:48;14.50;99.90
3752;DHT22;50827;47.014;7.652;2022-09-17T17:11:14;14.50;99.90
3752;DHT22;50827;47.014;7.652;2022-09-17T17:13:42;14.30;99.90
3752;DHT22;50827;47.014;7.652;2022-09-17T17:16:11;14.40;99.90
3752;DHT22;50827;47.014;7.652;2022-09-17T17:18:42;14.30;99.90
3752;DHT22;50827;47.014;7.652;2022-09-17T17:21:11;14.20;99.90
3752;DHT22;50827;47.014;7.652;2022-09-17T17:23:38;14.10;99.90
3752;DHT22;50827;47.014;7.652;2022-09-17T17:26:05;14.00;99.90
3752;DHT22;50827;47.014;7.652;2022-09-17T17:28:33;14.00;99.90
3752;DHT22;50827;47.014;7.652;2022-09-17T17:31:01;13.90;99.90
3752;DHT22;50827;47.014;7.652;2022-09-17T17:33:29;13.70;99.90
3752;DHT22;50827;47.014;7.652;2022-09-17T17:35:58;13.80;99.90
3752;DHT22;50827;47.014;7.652;2022-09-17T17:38:33;13.70;99.90
3752;DHT22;50827;47.014;7.652;2022-09-17T17:41:08;13.60;99.90
3752;DHT22;50827;47.014;7.652;2022-09-17T17:43:35;13.50;99.90
3752;DHT22;50827;47.014;7.652;2022-09-17T17:46:05;13.50;99.90
3752;DHT22;50827;47.014;7.652;2022-09-17T17:48:33;13.40;99.90
3752;DHT22;50827;47.014;7.652;2022-09-17T17:51:01;13.40;99.90
3752;DHT22;50827;47.014;7.652;2022-09-17T17:53:28;13.30;99.90
3752;DHT22;50827;47.014;7.652;2022-09-17T17:56:01;13.20;99.90
3752;DHT22;50827;47.014;7.652;2022-09-17T17:58:29;13.20;99.90
3752;DHT22;50827;47.014;7.652;2022-09-17T18:00:55;13.20;99.90
3752;DHT22;50827;47.014;7.652;2022-09-17T18:03:23;13.30;99.90
3752;DHT22;50827;47.014;7.652;2022-09-17T18:05:53;13.30;99.90
3752;DHT22;50827;47.014;7.652;2022-09-17T18:08:23;13.30;99.90
3752;DHT22;50827;47.014;7.652;2022-09-17T18:10:55;13.40;99.90
3752;DHT22;50827;47.014;7.652;2022-09-17T18:13:22;13.40;99.90
3752;DHT22;50827;47.014;7.652;2022-09-17T18:15:54;13.30;99.90
3752;DHT22;50827;47.014;7.652;2022-09-17T18:18:22;13.30;99.90
3752;DHT22;50827;47.014;7.652;2022-09-17T18:20:49;13.30;99.90
3752;DHT22;50827;47.014;7.652;2022-09-17T18:23:20;13.30;99.90
3752;DHT22;50827;47.014;7.652;2022-09-17T18:25:54;13.30;99.90
3752;DHT22;50827;47.014;7.652;2022-09-17T18:28:21;13.30;99.90
3752;DHT22;50827;47.014;7.652;2022-09-17T18:30:48;13.20;99.90
3752;DHT22;50827;47.014;7.652;2022-09-17T18:33:17;13.30;99.90
3752;DHT22;50827;47.014;7.652;2022-09-17T18:35:45;13.30;99.90
3752;DHT22;50827;47.014;7.652;2022-09-17T18:38:12;13.10;99.90
3752;DHT22;50827;47.014;7.652;2022-09-17T18:40:39;13.00;99.90
3752;DHT22;50827;47.014;7.652;2022-09-17T18:43:06;13.00;99.90
3752;DHT22;50827;47.014;7.652;2022-09-17T18:45:32;13.10;99.90
3752;DHT22;50827;47.014;7.652;2022-09-17T18:48:00;13.00;99.90
3752;DHT22;50827;47.014;7.652;2022-09-17T18:50:26;13.00;99.90
3752;DHT22;50827;47.014;7.652;2022-09-17T18:52:53;13.00;99.90
3752;DHT22;50827;47.014;7.652;2022-09-17T18:55:19;13.00;99.90
3752;DHT22;50827;47.014;7.652;2022-09-17T18:57:50;13.00;99.90
3752;DHT22;50827;47.014;7.652;2022-09-17T19:00:20;13.00;99.90
3752;DHT22;50827;47.014;7.652;2022-09-17T19:02:48;13.00;99.90
3752;DHT22;50827;47.014;7.652;2022-09-17T19:05:16;12.90;99.90
3752;DHT22;50827;47.014;7.652;2022-09-17T19:07:44;12.90;99.90
3752;DHT22;50827;47.014;7.652;2022-09-17T19:10:12;12.90;99.90
3752;DHT22;50827;47.014;7.652;2022-09-17T19:12:40;12.90;99.90
3752;DHT22;50827;47.014;7.652;2022-09-17T19:15:10;12.90;99.90
3752;DHT22;50827;47.014;7.652;2022-09-17T19:17:38;12.90;99.90
3752;DHT22;50827;47.014;7.652;2022-09-17T19:20:04;12.70;99.90
3752;DHT22;50827;47.014;7.652;2022-09-17T19:22:31;12.70;99.90
3752;DHT22;50827;47.014;7.652;2022-09-17T19:24:58;12.80;99.90
3752;DHT22;50827;47.014;7.652;2022-09-17T19:27:25;12.80;99.90
3752;DHT22;50827;47.014;7.652;2022-09-17T19:29:52;12.90;99.90
3752;DHT22;50827;47.014;7.652;2022-09-17T19:32:21;12.90;99.90
3752;DHT22;50827;47.014;7.652;2022-09-17T19:34:48;12.90;99.90
3752;DHT22;50827;47.014;7.652;2022-09-17T19:37:14;12.70;99.90
3752;DHT22;50827;47.014;7.652;2022-09-17T19:39:41;12.80;99.90